sensor_id;sensor_type;location;lat;lon;timestamp;temperature;humidity
59999;DHT22;45859;51.378;6.736;2023-03-11T00:00:36;2.30;99.90
59999;DHT22;45859;51.378;6.736;2023-03-11T00:03:06;1.50;99.90
59999;DHT22;45859;51.378;6.736;2023-03-11T00:05:40;0.40;99.90
59999;DHT22;45859;51.378;6.736;2023-03-11T00:08:09;2.10;99.90
59999;DHT22;45859;51.378;6.736;2023-03-11T00:10:38;1.70;99.90
59999;DHT22;45859;51.378;6.736;2023-03-11T00:13:05;1.60;99.90
59999;DHT22;45859;51.378;6.736;2023-03-11T00:15:32;2.00;99.90
59999;DHT22;45859;51.378;6.736;2023-03-11T00:17:58;3.10;99.90
59999;DHT22;45859;51.378;6.736;2023-03-11T00:20:30;2.00;99.90
59999;DHT22;45859;51.378;6.736;2023-03-11T00:22:56;2.00;99.90
59999;DHT22;45859;51.378;6.736;2023-03-11T00:25:23;1.80;99.90
59999;DHT22;45859;51.378;6.736;2023-03-11T00:27:49;1.90;99.90
59999;DHT22;45859;51.378;6.736;2023-03-11T00:30:16;1.80;99.90
59999;DHT22;45859;51.378;6.736;2023-03-11T00:32:42;1.80;99.90
59999;DHT22;45859;51.378;6.736;2023-03-11T00:35:12;1.90;99.90
59999;DHT22;45859;51.378;6.736;2023-03-11T00:37:38;1.80;99.90
59999;DHT22;45859;51.378;6.736;2023-03-11T00:40:04;1.90;99.90
59999;DHT22;45859;51.378;6.736;2023-03-11T00:42:33;0.60;99.90
59999;DHT22;45859;51.378;6.736;2023-03-11T00:44:59;1.80;99.90
59999;DHT22;45859;51.378;6.736;2023-03-11T00:47:24;2.00;99.90
59999;DHT22;45859;51.378;6.736;2023-03-11T00:49:50;2.10;99.90
59999;DHT22;45859;51.378;6.736;2023-03-11T00:52:16;1.90;99.90
59999;DHT22;45859;51.378;6.736;2023-03-11T00:54:41;1.80;99.90
59999;DHT22;45859;51.378;6.736;2023-03-11T00:57:07;1.90;99.90
59999;DHT22;45859;51.378;6.736;2023-03-11T00:59:34;2.50;99.90
59999;DHT22;45859;51.378;6.736;2023-03-11T01:01:59;1.80;99.90
59999;DHT22;45859;51.378;6.736;2023-03-11T01:04:25;1.80;99.90
59999;DHT22;45859;51.378;6.736;2023-03-11T01:06:50;1.80;99.90
59999;DHT22;45859;51.378;6.736;2023-03-11T01:09:16;1.90;99.90
59999;DHT22;45859;51.378;6.736;2023-03-11T01:11:42;1.90;99.90
59999;DHT22;45859;51.378;6.736;2023-03-11T01:14:07;0.50;99.90
59999;DHT22;45859;51.378;6.736;2023-03-11T01:16:33;1.80;99.90
59999;DHT22;45859;51.378;6.736;2023-03-11T01:18:59;1.50;99.90
59999;DHT22;45859;51.378;6.736;2023-03-11T01:21:24;1.80;99.90
59999;DHT22;45859;51.378;6.736;2023-03-11T01:23:50;1.80;99.90
59999;DHT22;45859;51.378;6.736;2023-03-11T01:26:15;2.20;99.90
59999;DHT22;45859;51.378;6.736;2023-03-11T01:28:41;1.70;99.90
59999;DHT22;45859;51.378;6.736;2023-03-11T01:31:08;1.70;99.90
59999;DHT22;45859;51.378;6.736;2023-03-11T01:33:34;1.80;99.90
59999;DHT22;45859;51.378;6.736;2023-03-11T01:36:00;2.00;99.90
59999;DHT22;45859;51.378;6.736;2023-03-11T01:38:25;2.00;99.90
59999;DHT22;45859;51.378;6.736;2023-03-11T01:40:51;1.10;99.90
59999;DHT22;45859;51.378;6.736;2023-03-11T01:43:42;2.00;99.90
59999;DHT22;45859;51.378;6.736;2023-03-11T01:46:25;1.70;99.90
59999;DHT22;45859;51.378;6.736;2023-03-11T01:48:54;1.60;99.90
59999;DHT22;45859;51.378;6.736;2023-03-11T01:51:29;1.30;99.90
59999;DHT22;45859;51.378;6.736;2023-03-11T01:53:56;1.50;99.90
59999;DHT22;45859;51.378;6.736;2023-03-11T01:56:23;1.50;99.90
59999;DHT22;45859;51.378;6.736;2023-03-11T01:58:51;1.50;99.90
59999;DHT22;45859;51.378;6.736;2023-03-11T02:01:19;1.10;99.90
59999;DHT22;45859;51.378;6.736;2023-03-11T02:03:45;-0.10;99.90
59999;DHT22;45859;51.378;6.736;2023-03-11T02:06:18;0.30;99.90
59999;DHT22;45859;51.378;6.736;2023-03-11T02:08:45;1.10;99.90
59999;DHT22;45859;51.378;6.736;2023-03-11T02:11:15;1.20;99.90
59999;DHT22;45859;51.378;6.736;2023-03-11T02:13:42;2.10;99.90
59999;DHT22;45859;51.378;6.736;2023-03-11T02:16:09;1.20;99.90
59999;DHT22;45859;51.378;6.736;2023-03-11T02:18:36;1.50;99.90
59999;DHT22;45859;51.378;6.736;2023-03-11T02:21:30;1.20;99.90
59999;DHT22;45859;51.378;6.736;2023-03-11T02:29:15;1.00;99.90
59999;DHT22;45859;51.378;6.736;2023-03-11T02:31:41;1.00;99.90
59999;DHT22;45859;51.378;6.736;2023-03-11T02:34:15;1.10;99.90
59999;DHT22;45859;51.378;6.736;2023-03-11T02:36:42;0.90;99.90
59999;DHT22;45859;51.378;6.736;2023-03-11T02:39:08;0.30;99.90
59999;DHT22;45859;51.378;6.736;2023-03-11T02:41:39;0.90;99.90
59999;DHT22;45859;51.378;6.736;2023-03-11T02:44:08;0.80;99.90
59999;DHT22;45859;51.378;6.736;2023-03-11T02:46:36;0.70;99.90
59999;DHT22;45859;51.378;6.736;2023-03-11T02:49:03;0.90;99.90
59999;DHT22;45859;51.378;6.736;2023-03-11T02:51:29;0.60;99.90
59999;DHT22;45859;51.378;6.736;2023-03-11T02:53:58;0.70;99.90
59999;DHT22;45859;51.378;6.736;2023-03-11T02:56:25;1.30;99.90
59999;DHT22;45859;51.378;6.736;2023-03-11T02:58:51;-0.60;99.90
59999;DHT22;45859;51.378;6.736;2023-03-11T03:03:42;-0.10;99.90
59999;DHT22;45859;51.378;6.736;2023-03-11T03:06:08;0.60;99.90
59999;DHT22;45859;51.378;6.736;2023-03-11T03:08:34;0.40;99.90
59999;DHT22;45859;51.378;6.736;2023-03-11T03:11:00;1.70;99.90
59999;DHT22;45859;51.378;6.736;2023-03-11T03:13:26;0.40;99.90
59999;DHT22;45859;51.378;6.736;2023-03-11T03:15:52;0.70;99.90
59999;DHT22;45859;51.378;6.736;2023-03-11T03:18:17;0.50;99.90
59999;DHT22;45859;51.378;6.736;2023-03-11T03:20:43;0.30;99.90
59999;DHT22;45859;51.378;6.736;2023-03-11T03:23:09;-0.30;99.90
59999;DHT22;45859;51.378;6.736;2023-03-11T03:25:34;0.30;99.90
59999;DHT22;45859;51.378;6.736;2023-03-11T03:28:00;0.40;99.90
59999;DHT22;45859;51.378;6.736;2023-03-11T03:30:26;0.20;99.90
59999;DHT22;45859;51.378;6.736;2023-03-11T03:32:54;-0.10;99.90
59999;DHT22;45859;51.378;6.736;2023-03-11T03:35:20;0.20;99.90
59999;DHT22;45859;51.378;6.736;2023-03-11T03:37:45;0.20;99.90
59999;DHT22;45859;51.378;6.736;2023-03-11T03:40:12;0.40;99.90
59999;DHT22;45859;51.378;6.736;2023-03-11T03:45:05;-0.80;99.90
59999;DHT22;45859;51.378;6.736;2023-03-11T03:47:33;0.10;99.90
59999;DHT22;45859;51.378;6.736;2023-03-11T03:49:58;0.40;99.90
59999;DHT22;45859;51.378;6.736;2023-03-11T03:52:24;-0.20;99.90
59999;DHT22;45859;51.378;6.736;2023-03-11T03:54:50;0.40;99.90
59999;DHT22;45859;51.378;6.736;2023-03-11T03:57:16;0.10;99.90
59999;DHT22;45859;51.378;6.736;2023-03-11T03:59:42;0.20;99.90
59999;DHT22;45859;51.378;6.736;2023-03-11T04:02:07;0.30;99.90
59999;DHT22;45859;51.378;6.736;2023-03-11T04:04:33;0.20;99.90
59999;DHT22;45859;51.378;6.736;2023-03-11T04:11:51;0.30;99.90
59999;DHT22;45859;51.378;6.736;2023-03-11T04:14:16;0.20;99.90
59999;DHT22;45859;51.378;6.736;2023-03-11T04:16:42;0.80;99.90
59999;DHT22;45859;51.378;6.736;2023-03-11T04:19:08;-1.30;99.90
59999;DHT22;45859;51.378;6.736;2023-03-11T04:21:34;-0.30;99.90
59999;DHT22;45859;51.378;6.736;2023-03-11T04:23:59;0.10;99.90
59999;DHT22;45859;51.378;6.736;2023-03-11T04:26:25;0.00;99.90
59999;DHT22;45859;51.378;6.736;2023-03-11T04:28:51;0.00;99.90
59999;DHT22;45859;51.378;6.736;2023-03-11T04:31:16;-1.10;99.90
59999;DHT22;45859;51.378;6.736;2023-03-11T04:33:42;0.30;99.90
59999;DHT22;45859;51.378;6.736;2023-03-11T04:36:08;-0.30;99.90
59999;DHT22;45859;51.378;6.736;2023-03-11T04:38:37;-0.90;99.90
59999;DHT22;45859;51.378;6.736;2023-03-11T04:41:04;-1.20;99.90
59999;DHT22;45859;51.378;6.736;2023-03-11T04:43:30;-0.10;99.90
59999;DHT22;45859;51.378;6.736;2023-03-11T04:45:55;0.20;99.90
59999;DHT22;45859;51.378;6.736;2023-03-11T04:50:49;0.90;99.90
59999;DHT22;45859;51.378;6.736;2023-03-11T04:53:14;0.80;99.90
59999;DHT22;45859;51.378;6.736;2023-03-11T04:55:40;-0.20;99.90
59999;DHT22;45859;51.378;6.736;2023-03-11T05:00:32;-1.20;99.90
59999;DHT22;45859;51.378;6.736;2023-03-11T05:02:57;0.30;99.90
59999;DHT22;45859;51.378;6.736;2023-03-11T05:05:23;0.40;99.90
59999;DHT22;45859;51.378;6.736;2023-03-11T05:10:15;0.00;99.90
59999;DHT22;45859;51.378;6.736;2023-03-11T05:15:12;0.30;99.90
59999;DHT22;45859;51.378;6.736;2023-03-11T05:17:38;1.30;99.90
59999;DHT22;45859;51.378;6.736;2023-03-11T05:22:32;0.70;99.90
59999;DHT22;45859;51.378;6.736;2023-03-11T05:24:57;0.30;99.90
59999;DHT22;45859;51.378;6.736;2023-03-11T05:27:23;-0.70;99.90
59999;DHT22;45859;51.378;6.736;2023-03-11T05:37:07;0.60;99.90
59999;DHT22;45859;51.378;6.736;2023-03-11T05:41:59;0.20;99.90
59999;DHT22;45859;51.378;6.736;2023-03-11T05:44:25;0.20;99.90
59999;DHT22;45859;51.378;6.736;2023-03-11T05:46:50;0.30;99.90
59999;DHT22;45859;51.378;6.736;2023-03-11T05:51:42;0.30;99.90
59999;DHT22;45859;51.378;6.736;2023-03-11T05:54:08;-0.60;99.90
59999;DHT22;45859;51.378;6.736;2023-03-11T05:56:40;0.70;99.90
59999;DHT22;45859;51.378;6.736;2023-03-11T05:59:06;-0.20;99.90
59999;DHT22;45859;51.378;6.736;2023-03-11T06:01:32;0.40;99.90
59999;DHT22;45859;51.378;6.736;2023-03-11T06:03:58;0.20;99.90
59999;DHT22;45859;51.378;6.736;2023-03-11T06:06:24;0.30;99.90
59999;DHT22;45859;51.378;6.736;2023-03-11T06:08:50;0.50;99.90
59999;DHT22;45859;51.378;6.736;2023-03-11T06:16:08;0.50;99.90
59999;DHT22;45859;51.378;6.736;2023-03-11T06:18:34;0.40;99.90
59999;DHT22;45859;51.378;6.736;2023-03-11T06:21:01;1.60;99.90
59999;DHT22;45859;51.378;6.736;2023-03-11T06:23:27;0.30;99.90
59999;DHT22;45859;51.378;6.736;2023-03-11T06:26:01;0.80;99.90
59999;DHT22;45859;51.378;6.736;2023-03-11T06:28:28;0.40;99.90
59999;DHT22;45859;51.378;6.736;2023-03-11T06:30:54;1.10;99.90
59999;DHT22;45859;51.378;6.736;2023-03-11T06:33:24;-0.60;99.90
59999;DHT22;45859;51.378;6.736;2023-03-11T06:36:00;0.20;99.90
59999;DHT22;45859;51.378;6.736;2023-03-11T06:38:27;-0.70;99.90
59999;DHT22;45859;51.378;6.736;2023-03-11T06:40:52;0.40;99.90
59999;DHT22;45859;51.378;6.736;2023-03-11T06:43:18;0.00;99.90
59999;DHT22;45859;51.378;6.736;2023-03-11T06:45:44;0.30;99.90
59999;DHT22;45859;51.378;6.736;2023-03-11T06:48:10;0.70;99.90
59999;DHT22;45859;51.378;6.736;2023-03-11T06:50:36;1.60;99.90
59999;DHT22;45859;51.378;6.736;2023-03-11T06:53:01;0.70;99.90
59999;DHT22;45859;51.378;6.736;2023-03-11T06:55:30;-0.10;99.90
59999;DHT22;45859;51.378;6.736;2023-03-11T06:57:56;0.80;99.90
59999;DHT22;45859;51.378;6.736;2023-03-11T07:00:22;1.20;99.90
59999;DHT22;45859;51.378;6.736;2023-03-11T07:02:48;1.60;99.90
59999;DHT22;45859;51.378;6.736;2023-03-11T07:05:14;1.60;99.90
59999;DHT22;45859;51.378;6.736;2023-03-11T07:07:39;2.50;99.90
59999;DHT22;45859;51.378;6.736;2023-03-11T07:10:05;2.10;99.90
59999;DHT22;45859;51.378;6.736;2023-03-11T07:12:31;3.90;99.90
59999;DHT22;45859;51.378;6.736;2023-03-11T07:14:57;2.70;99.90
59999;DHT22;45859;51.378;6.736;2023-03-11T07:17:24;3.00;99.90
59999;DHT22;45859;51.378;6.736;2023-03-11T07:19:49;3.50;99.90
59999;DHT22;45859;51.378;6.736;2023-03-11T07:22:15;3.90;99.90
59999;DHT22;45859;51.378;6.736;2023-03-11T07:24:44;4.50;99.90
59999;DHT22;45859;51.378;6.736;2023-03-11T07:27:10;4.80;99.90
59999;DHT22;45859;51.378;6.736;2023-03-11T07:29:36;5.20;99.90
59999;DHT22;45859;51.378;6.736;2023-03-11T07:32:01;4.90;99.90
59999;DHT22;45859;51.378;6.736;2023-03-11T07:34:27;5.10;99.90
59999;DHT22;45859;51.378;6.736;2023-03-11T07:36:52;5.30;99.90
59999;DHT22;45859;51.378;6.736;2023-03-11T07:39:18;6.00;99.90
59999;DHT22;45859;51.378;6.736;2023-03-11T07:41:44;7.30;99.90
59999;DHT22;45859;51.378;6.736;2023-03-11T07:44:14;6.90;99.90
59999;DHT22;45859;51.378;6.736;2023-03-11T07:46:40;7.40;99.90
59999;DHT22;45859;51.378;6.736;2023-03-11T07:49:06;7.30;99.90
59999;DHT22;45859;51.378;6.736;2023-03-11T07:51:33;7.50;99.90
59999;DHT22;45859;51.378;6.736;2023-03-11T07:54:00;7.10;99.90
59999;DHT22;45859;51.378;6.736;2023-03-11T07:56:29;7.30;99.90
59999;DHT22;45859;51.378;6.736;2023-03-11T07:58:57;6.90;99.90
59999;DHT22;45859;51.378;6.736;2023-03-11T08:01:24;7.20;99.90
59999;DHT22;45859;51.378;6.736;2023-03-11T08:03:52;7.40;99.90
59999;DHT22;45859;51.378;6.736;2023-03-11T08:06:24;7.80;99.90
59999;DHT22;45859;51.378;6.736;2023-03-11T08:08:50;7.60;99.90
59999;DHT22;45859;51.378;6.736;2023-03-11T08:11:17;8.10;99.90
59999;DHT22;45859;51.378;6.736;2023-03-11T08:13:44;8.90;99.90
59999;DHT22;45859;51.378;6.736;2023-03-11T08:16:12;9.80;99.90
59999;DHT22;45859;51.378;6.736;2023-03-11T08:18:38;10.10;99.90
59999;DHT22;45859;51.378;6.736;2023-03-11T08:21:08;10.30;99.90
59999;DHT22;45859;51.378;6.736;2023-03-11T08:23:35;10.80;99.90
59999;DHT22;45859;51.378;6.736;2023-03-11T08:26:10;11.10;99.90
59999;DHT22;45859;51.378;6.736;2023-03-11T08:28:36;11.50;99.90
59999;DHT22;45859;51.378;6.736;2023-03-11T08:31:03;12.10;99.90
59999;DHT22;45859;51.378;6.736;2023-03-11T08:33:35;11.90;99.90
59999;DHT22;45859;51.378;6.736;2023-03-11T08:36:01;12.00;99.90
59999;DHT22;45859;51.378;6.736;2023-03-11T08:38:27;12.10;99.90
59999;DHT22;45859;51.378;6.736;2023-03-11T08:40:53;12.00;99.90
59999;DHT22;45859;51.378;6.736;2023-03-11T08:43:18;12.80;99.90
59999;DHT22;45859;51.378;6.736;2023-03-11T08:45:44;13.20;99.90
59999;DHT22;45859;51.378;6.736;2023-03-11T08:48:11;12.60;99.90
59999;DHT22;45859;51.378;6.736;2023-03-11T08:50:39;12.70;99.90
59999;DHT22;45859;51.378;6.736;2023-03-11T08:53:05;12.70;99.90
59999;DHT22;45859;51.378;6.736;2023-03-11T08:55:30;13.50;99.90
59999;DHT22;45859;51.378;6.736;2023-03-11T08:57:56;13.80;99.90
59999;DHT22;45859;51.378;6.736;2023-03-11T09:00:22;13.50;99.90
59999;DHT22;45859;51.378;6.736;2023-03-11T09:02:47;14.00;99.90
59999;DHT22;45859;51.378;6.736;2023-03-11T09:05:13;13.80;99.90
59999;DHT22;45859;51.378;6.736;2023-03-11T09:07:39;13.70;99.90
59999;DHT22;45859;51.378;6.736;2023-03-11T09:10:06;14.10;99.90
59999;DHT22;45859;51.378;6.736;2023-03-11T09:12:32;13.40;99.90
59999;DHT22;45859;51.378;6.736;2023-03-11T09:14:57;13.00;99.90
59999;DHT22;45859;51.378;6.736;2023-03-11T09:17:23;13.70;99.90
59999;DHT22;45859;51.378;6.736;2023-03-11T09:19:49;13.00;99.90
59999;DHT22;45859;51.378;6.736;2023-03-11T09:22:14;12.70;99.90
59999;DHT22;45859;51.378;6.736;2023-03-11T09:24:40;12.90;99.90
59999;DHT22;45859;51.378;6.736;2023-03-11T09:27:05;12.20;99.90
59999;DHT22;45859;51.378;6.736;2023-03-11T09:29:31;11.80;99.90
59999;DHT22;45859;51.378;6.736;2023-03-11T09:31:57;11.10;99.90
59999;DHT22;45859;51.378;6.736;2023-03-11T09:34:23;11.40;99.90
59999;DHT22;45859;51.378;6.736;2023-03-11T09:36:48;10.20;99.90
59999;DHT22;45859;51.378;6.736;2023-03-11T09:39:14;9.70;99.90
59999;DHT22;45859;51.378;6.736;2023-03-11T09:41:53;9.40;99.90
59999;DHT22;45859;51.378;6.736;2023-03-11T09:44:36;7.70;99.90
59999;DHT22;45859;51.378;6.736;2023-03-11T09:49:54;9.10;99.90
59999;DHT22;45859;51.378;6.736;2023-03-11T09:55:02;9.30;99.90
59999;DHT22;45859;51.378;6.736;2023-03-11T09:57:32;8.80;99.90
59999;DHT22;45859;51.378;6.736;2023-03-11T10:00:01;8.50;99.90
59999;DHT22;45859;51.378;6.736;2023-03-11T10:02:29;8.10;99.90
59999;DHT22;45859;51.378;6.736;2023-03-11T10:07:38;8.40;99.90
59999;DHT22;45859;51.378;6.736;2023-03-11T10:10:05;8.00;99.90
59999;DHT22;45859;51.378;6.736;2023-03-11T10:12:58;8.30;99.90
59999;DHT22;45859;51.378;6.736;2023-03-11T10:25:03;7.60;99.90
59999;DHT22;45859;51.378;6.736;2023-03-11T10:27:16;7.50;99.90
59999;DHT22;45859;51.378;6.736;2023-03-11T10:30:05;7.40;99.90
59999;DHT22;45859;51.378;6.736;2023-03-11T10:32:45;7.30;99.90
59999;DHT22;45859;51.378;6.736;2023-03-11T10:35:21;7.60;99.90
59999;DHT22;45859;51.378;6.736;2023-03-11T10:37:59;7.70;99.90
59999;DHT22;45859;51.378;6.736;2023-03-11T10:40:35;7.80;99.90
59999;DHT22;45859;51.378;6.736;2023-03-11T10:43:09;7.80;99.90
59999;DHT22;45859;51.378;6.736;2023-03-11T10:45:40;7.80;99.90
59999;DHT22;45859;51.378;6.736;2023-03-11T10:48:16;8.00;99.90
59999;DHT22;45859;51.378;6.736;2023-03-11T10:51:01;8.00;99.90
59999;DHT22;45859;51.378;6.736;2023-03-11T10:53:28;7.80;99.90
59999;DHT22;45859;51.378;6.736;2023-03-11T10:55:56;7.60;99.90
59999;DHT22;45859;51.378;6.736;2023-03-11T10:58:27;7.30;99.90
59999;DHT22;45859;51.378;6.736;2023-03-11T11:01:00;7.40;99.90
59999;DHT22;45859;51.378;6.736;2023-03-11T11:03:26;7.80;99.90
59999;DHT22;45859;51.378;6.736;2023-03-11T11:05:57;7.30;99.90
59999;DHT22;45859;51.378;6.736;2023-03-11T11:08:24;7.20;99.90
59999;DHT22;45859;51.378;6.736;2023-03-11T11:10:54;6.20;99.90
59999;DHT22;45859;51.378;6.736;2023-03-11T11:13:23;7.10;99.90
59999;DHT22;45859;51.378;6.736;2023-03-11T11:15:58;6.90;99.90
59999;DHT22;45859;51.378;6.736;2023-03-11T11:18:36;6.90;99.90
59999;DHT22;45859;51.378;6.736;2023-03-11T11:21:10;6.80;99.90
59999;DHT22;45859;51.378;6.736;2023-03-11T11:23:41;6.90;99.90
59999;DHT22;45859;51.378;6.736;2023-03-11T11:26:20;7.10;99.90
59999;DHT22;45859;51.378;6.736;2023-03-11T11:28:46;7.10;99.90
59999;DHT22;45859;51.378;6.736;2023-03-11T11:31:29;7.10;99.90
59999;DHT22;45859;51.378;6.736;2023-03-11T11:33:55;7.30;99.90
59999;DHT22;45859;51.378;6.736;2023-03-11T11:36:26;7.30;99.90
59999;DHT22;45859;51.378;6.736;2023-03-11T11:38:53;8.40;99.90
59999;DHT22;45859;51.378;6.736;2023-03-11T11:41:21;7.40;99.90
59999;DHT22;45859;51.378;6.736;2023-03-11T11:43:54;8.60;99.90
59999;DHT22;45859;51.378;6.736;2023-03-11T11:46:38;7.70;99.90
59999;DHT22;45859;51.378;6.736;2023-03-11T11:49:23;7.90;99.90
59999;DHT22;45859;51.378;6.736;2023-03-11T11:52:16;8.20;99.90
59999;DHT22;45859;51.378;6.736;2023-03-11T11:55:08;8.10;99.90
59999;DHT22;45859;51.378;6.736;2023-03-11T11:57:31;7.90;99.90
59999;DHT22;45859;51.378;6.736;2023-03-11T11:59:57;7.80;99.90
59999;DHT22;45859;51.378;6.736;2023-03-11T12:02:59;7.70;99.90
59999;DHT22;45859;51.378;6.736;2023-03-11T12:05:31;7.40;99.90
59999;DHT22;45859;51.378;6.736;2023-03-11T12:08:09;7.30;99.90
59999;DHT22;45859;51.378;6.736;2023-03-11T12:10:58;7.40;99.90
59999;DHT22;45859;51.378;6.736;2023-03-11T12:27:02;7.60;99.90
59999;DHT22;45859;51.378;6.736;2023-03-11T12:29:42;7.50;99.90
59999;DHT22;45859;51.378;6.736;2023-03-11T12:34:49;7.30;99.90
59999;DHT22;45859;51.378;6.736;2023-03-11T12:37:20;7.20;99.90
59999;DHT22;45859;51.378;6.736;2023-03-11T12:39:47;7.70;99.90
59999;DHT22;45859;51.378;6.736;2023-03-11T12:42:22;7.10;99.90
59999;DHT22;45859;51.378;6.736;2023-03-11T12:44:50;7.00;99.90
59999;DHT22;45859;51.378;6.736;2023-03-11T12:47:20;6.70;99.90
59999;DHT22;45859;51.378;6.736;2023-03-11T12:49:54;6.70;99.90
59999;DHT22;45859;51.378;6.736;2023-03-11T12:52:25;5.70;99.90
59999;DHT22;45859;51.378;6.736;2023-03-11T12:57:34;6.50;99.90
59999;DHT22;45859;51.378;6.736;2023-03-11T13:08:36;6.90;99.90
59999;DHT22;45859;51.378;6.736;2023-03-11T13:14:25;7.00;99.90
59999;DHT22;45859;51.378;6.736;2023-03-11T13:16:53;6.90;99.90
59999;DHT22;45859;51.378;6.736;2023-03-11T13:21:54;6.70;99.90
59999;DHT22;45859;51.378;6.736;2023-03-11T13:32:16;6.70;99.90
59999;DHT22;45859;51.378;6.736;2023-03-11T13:40:42;6.70;99.90
59999;DHT22;45859;51.378;6.736;2023-03-11T13:45:50;6.40;99.90
59999;DHT22;45859;51.378;6.736;2023-03-11T13:48:26;6.70;99.90
59999;DHT22;45859;51.378;6.736;2023-03-11T13:51:00;6.60;99.90
59999;DHT22;45859;51.378;6.736;2023-03-11T13:53:32;7.30;99.90
59999;DHT22;45859;51.378;6.736;2023-03-11T13:55:59;6.70;99.90
59999;DHT22;45859;51.378;6.736;2023-03-11T13:58:26;6.70;99.90
59999;DHT22;45859;51.378;6.736;2023-03-11T14:00:54;7.20;99.90
59999;DHT22;45859;51.378;6.736;2023-03-11T14:03:21;6.70;99.90
59999;DHT22;45859;51.378;6.736;2023-03-11T14:05:55;6.80;99.90
59999;DHT22;45859;51.378;6.736;2023-03-11T14:08:27;6.80;99.90
59999;DHT22;45859;51.378;6.736;2023-03-11T14:10:56;6.80;99.90
59999;DHT22;45859;51.378;6.736;2023-03-11T14:13:24;7.00;99.90
59999;DHT22;45859;51.378;6.736;2023-03-11T14:19:12;6.80;99.90
59999;DHT22;45859;51.378;6.736;2023-03-11T14:21:44;6.70;99.90
59999;DHT22;45859;51.378;6.736;2023-03-11T14:24:18;6.60;99.90
59999;DHT22;45859;51.378;6.736;2023-03-11T14:26:45;7.40;99.90
59999;DHT22;45859;51.378;6.736;2023-03-11T14:29:18;6.50;99.90
59999;DHT22;45859;51.378;6.736;2023-03-11T14:31:46;6.50;99.90
59999;DHT22;45859;51.378;6.736;2023-03-11T14:44:40;6.30;99.90
59999;DHT22;45859;51.378;6.736;2023-03-11T14:47:21;6.50;99.90
59999;DHT22;45859;51.378;6.736;2023-03-11T14:49:49;7.40;99.90
59999;DHT22;45859;51.378;6.736;2023-03-11T14:52:40;6.40;99.90
59999;DHT22;45859;51.378;6.736;2023-03-11T14:55:14;6.50;99.90
59999;DHT22;45859;51.378;6.736;2023-03-11T14:57:51;6.60;99.90
59999;DHT22;45859;51.378;6.736;2023-03-11T15:00:23;6.40;99.90
59999;DHT22;45859;51.378;6.736;2023-03-11T15:03:07;6.60;99.90
59999;DHT22;45859;51.378;6.736;2023-03-11T15:06:02;6.60;99.90
59999;DHT22;45859;51.378;6.736;2023-03-11T15:08:32;6.60;99.90
59999;DHT22;45859;51.378;6.736;2023-03-11T15:11:05;6.60;99.90
59999;DHT22;45859;51.378;6.736;2023-03-11T15:13:31;6.60;99.90
59999;DHT22;45859;51.378;6.736;2023-03-11T15:16:02;6.50;99.90
59999;DHT22;45859;51.378;6.736;2023-03-11T15:18:35;6.40;99.90
59999;DHT22;45859;51.378;6.736;2023-03-11T15:23:34;6.50;99.90
59999;DHT22;45859;51.378;6.736;2023-03-11T15:26:00;6.50;99.90
59999;DHT22;45859;51.378;6.736;2023-03-11T15:28:30;6.20;99.90
59999;DHT22;45859;51.378;6.736;2023-03-11T15:33:44;6.40;99.90
59999;DHT22;45859;51.378;6.736;2023-03-11T15:36:33;6.60;99.90
59999;DHT22;45859;51.378;6.736;2023-03-11T15:41:46;6.60;99.90
59999;DHT22;45859;51.378;6.736;2023-03-11T15:44:23;6.70;99.90
59999;DHT22;45859;51.378;6.736;2023-03-11T15:46:49;6.70;99.90
59999;DHT22;45859;51.378;6.736;2023-03-11T15:49:15;6.70;99.90
59999;DHT22;45859;51.378;6.736;2023-03-11T15:51:41;6.70;99.90
59999;DHT22;45859;51.378;6.736;2023-03-11T15:54:06;6.50;99.90
59999;DHT22;45859;51.378;6.736;2023-03-11T15:56:32;6.70;99.90
59999;DHT22;45859;51.378;6.736;2023-03-11T15:58:58;6.70;99.90
59999;DHT22;45859;51.378;6.736;2023-03-11T16:01:24;6.70;99.90
59999;DHT22;45859;51.378;6.736;2023-03-11T16:03:53;6.70;99.90
59999;DHT22;45859;51.378;6.736;2023-03-11T16:06:19;6.60;99.90
59999;DHT22;45859;51.378;6.736;2023-03-11T16:08:47;6.50;99.90
59999;DHT22;45859;51.378;6.736;2023-03-11T16:11:13;6.40;99.90
59999;DHT22;45859;51.378;6.736;2023-03-11T16:13:39;6.30;99.90
59999;DHT22;45859;51.378;6.736;2023-03-11T16:16:05;6.30;99.90
59999;DHT22;45859;51.378;6.736;2023-03-11T16:18:30;6.20;99.90
59999;DHT22;45859;51.378;6.736;2023-03-11T16:20:57;6.10;99.90
59999;DHT22;45859;51.378;6.736;2023-03-11T16:23:28;6.20;99.90
59999;DHT22;45859;51.378;6.736;2023-03-11T16:25:58;7.20;99.90
59999;DHT22;45859;51.378;6.736;2023-03-11T16:28:24;6.00;99.90
59999;DHT22;45859;51.378;6.736;2023-03-11T16:30:50;6.00;99.90
59999;DHT22;45859;51.378;6.736;2023-03-11T16:33:16;6.00;99.90
59999;DHT22;45859;51.378;6.736;2023-03-11T16:35:41;6.00;99.90
59999;DHT22;45859;51.378;6.736;2023-03-11T16:38:08;5.20;99.90
59999;DHT22;45859;51.378;6.736;2023-03-11T16:40:34;6.40;99.90
59999;DHT22;45859;51.378;6.736;2023-03-11T16:43:02;6.00;99.90
59999;DHT22;45859;51.378;6.736;2023-03-11T16:45:28;6.00;99.90
59999;DHT22;45859;51.378;6.736;2023-03-11T16:47:54;5.90;99.90
59999;DHT22;45859;51.378;6.736;2023-03-11T16:50:19;5.90;99.90
59999;DHT22;45859;51.378;6.736;2023-03-11T16:52:48;5.90;99.90
59999;DHT22;45859;51.378;6.736;2023-03-11T16:55:14;5.70;99.90
59999;DHT22;45859;51.378;6.736;2023-03-11T16:57:40;5.70;99.90
59999;DHT22;45859;51.378;6.736;2023-03-11T17:00:08;5.70;99.90
59999;DHT22;45859;51.378;6.736;2023-03-11T17:02:35;5.70;99.90
59999;DHT22;45859;51.378;6.736;2023-03-11T17:05:01;5.50;99.90
59999;DHT22;45859;51.378;6.736;2023-03-11T17:07:27;5.50;99.90
59999;DHT22;45859;51.378;6.736;2023-03-11T17:09:53;5.40;99.90
59999;DHT22;45859;51.378;6.736;2023-03-11T17:12:19;5.40;99.90
59999;DHT22;45859;51.378;6.736;2023-03-11T17:14:45;5.30;99.90
59999;DHT22;45859;51.378;6.736;2023-03-11T17:17:11;5.20;99.90
59999;DHT22;45859;51.378;6.736;2023-03-11T17:19:36;5.10;99.90
59999;DHT22;45859;51.378;6.736;2023-03-11T17:22:03;5.00;99.90
59999;DHT22;45859;51.378;6.736;2023-03-11T17:24:29;4.90;99.90
59999;DHT22;45859;51.378;6.736;2023-03-11T17:26:55;4.70;99.90
59999;DHT22;45859;51.378;6.736;2023-03-11T17:29:20;4.60;99.90
59999;DHT22;45859;51.378;6.736;2023-03-11T17:31:46;3.70;99.90
59999;DHT22;45859;51.378;6.736;2023-03-11T17:34:12;4.30;99.90
59999;DHT22;45859;51.378;6.736;2023-03-11T17:36:39;4.20;99.90
59999;DHT22;45859;51.378;6.736;2023-03-11T17:39:04;4.10;99.90
59999;DHT22;45859;51.378;6.736;2023-03-11T17:41:30;4.00;99.90
59999;DHT22;45859;51.378;6.736;2023-03-11T17:43:56;4.00;99.90
59999;DHT22;45859;51.378;6.736;2023-03-11T17:46:21;3.90;99.90
59999;DHT22;45859;51.378;6.736;2023-03-11T17:48:48;3.80;99.90
59999;DHT22;45859;51.378;6.736;2023-03-11T17:51:17;3.60;99.90
59999;DHT22;45859;51.378;6.736;2023-03-11T17:53:46;3.50;99.90
59999;DHT22;45859;51.378;6.736;2023-03-11T17:56:14;3.40;99.90
59999;DHT22;45859;51.378;6.736;2023-03-11T17:58:40;3.40;99.90
59999;DHT22;45859;51.378;6.736;2023-03-11T18:01:09;3.40;99.90
59999;DHT22;45859;51.378;6.736;2023-03-11T18:03:36;3.30;99.90
59999;DHT22;45859;51.378;6.736;2023-03-11T18:06:03;3.30;99.90